Time;durP1;ratioP1;P1;durP2;ratioP2;P2;SDS_P1;SDS_P2;PMS_P1;PMS_P2;Temp;Humidity;BMP_temperature;BMP_pressure;BME280_temperature;BME280_humidity;BME280_pressure;Samples;Min_cycle;Max_cycle;Signal;HPM_P1;HPM_P2
2023/01/01 00:02:55;;;;;;;10.80;1.98;;;;;;;20.52;37.53;100803.28;16129975;19;129683;-49
2023/01/01 00:08:17;;;;;;;5.35;1.55;;;;;;;20.48;37.18;100805.75;16129194;19;129226;-45
2023/01/01 00:13:40;;;;;;;5.78;1.63;;;;;;;20.46;37.45;100802.38;16130885;19;130249;-48
2023/01/01 00:19:02;;;;;;;5.60;1.40;;;;;;;20.42;37.36;100813.19;16129990;19;130816;-47
2023/01/01 00:24:24;;;;;;;3.65;1.33;;;;;;;20.38;37.18;100806.47;16125474;19;130140;-48
2023/01/01 00:29:46;;;;;;;6.57;1.70;;;;;;;20.35;37.32;100814.50;16127179;19;130136;-49
2023/01/01 00:35:08;;;;;;;6.15;1.38;;;;;;;20.34;37.37;100801.69;16129226;19;131293;-47
2023/01/01 00:40:30;;;;;;;6.32;1.65;;;;;;;20.29;37.36;100825.56;16128152;19;129900;-47
2023/01/01 00:45:52;;;;;;;6.70;1.42;;;;;;;20.27;37.55;100849.97;16127502;19;129448;-50
2023/01/01 00:51:14;;;;;;;8.60;1.45;;;;;;;20.23;37.32;100818.25;16126579;19;130034;-51
2023/01/01 00:56:36;;;;;;;3.45;1.45;;;;;;;20.21;37.29;100825.19;16126939;19;129747;-46
2023/01/01 01:01:58;;;;;;;5.07;1.25;;;;;;;20.18;37.34;100829.31;16124537;19;130835;-48
2023/01/01 01:07:20;;;;;;;5.80;1.60;;;;;;;20.16;37.24;100833.44;16122420;19;129231;-47
2023/01/01 01:12:41;;;;;;;5.25;1.35;;;;;;;20.13;37.42;100835.63;16126026;19;129939;-51
2023/01/01 01:18:03;;;;;;;6.22;1.80;;;;;;;20.12;37.58;100822.00;16123926;19;130848;-48
2023/01/01 01:23:25;;;;;;;3.15;1.40;;;;;;;20.10;37.46;100815.88;16121997;19;129923;-50
2023/01/01 01:28:47;;;;;;;4.65;1.08;;;;;;;20.08;37.33;100826.41;16121695;19;129748;-49
2023/01/01 01:34:10;;;;;;;2.97;1.30;;;;;;;20.05;37.36;100824.16;16121879;19;130707;-47
2023/01/01 01:39:37;;;;;;;4.60;1.35;;;;;;;20.05;37.55;100840.81;16123573;19;129475;-46
2023/01/01 01:45:01;;;;;;;6.13;1.40;;;;;;;20.02;37.15;100850.47;16122195;19;129552;-50
2023/01/01 01:50:33;;;;;;;4.43;1.20;;;;;;;20.02;37.52;100852.44;16120327;19;137115;-46
2023/01/01 01:56:06;;;;;;;3.22;1.10;;;;;;;20.00;37.14;100855.44;16118745;19;129724;-49
2023/01/01 02:01:28;;;;;;;5.00;1.17;;;;;;;19.96;37.41;100880.09;16119572;19;130709;-51
2023/01/01 02:06:51;;;;;;;3.83;1.38;;;;;;;19.96;37.07;100895.94;16123709;19;130514;-50
2023/01/01 02:12:13;;;;;;;4.80;1.40;;;;;;;19.92;37.22;100895.59;16118457;19;130960;-46
2023/01/01 02:17:59;;;;;;;4.43;1.20;;;;;;;19.92;37.46;100901.16;16119950;19;129337;-51
2023/01/01 02:23:51;;;;;;;5.43;1.30;;;;;;;19.90;37.14;100894.16;16118478;19;130294;-52
2023/01/01 02:29:36;;;;;;;4.28;0.90;;;;;;;19.88;37.31;100886.09;16116060;19;130225;-49
2023/01/01 02:40:59;;;;;;;2.55;0.93;;;;;;;19.84;37.01;100902.44;16114840;19;129378;-51
2023/01/01 02:46:21;;;;;;;2.90;0.93;;;;;;;19.82;37.34;100898.22;16118552;19;129995;-51
2023/01/01 02:51:58;;;;;;;7.75;0.85;;;;;;;19.81;37.18;100900.16;16115510;19;130248;-51
2023/01/01 02:57:44;;;;;;;3.30;1.08;;;;;;;19.82;37.27;100923.19;16117227;19;129407;-48
2023/01/01 03:03:17;;;;;;;;;;;;;;;19.76;37.25;100915.91;16115803;19;132082;-50
2023/01/01 03:09:01;;;;;;;4.70;1.02;;;;;;;19.78;37.39;100924.81;16118752;19;129545;-50
2023/01/01 03:14:31;;;;;;;4.88;1.00;;;;;;;19.76;37.38;100907.56;16116392;19;130619;-47
2023/01/01 03:19:55;;;;;;;4.13;0.80;;;;;;;19.74;37.67;100913.38;16114812;19;130225;-47
2023/01/01 03:25:23;;;;;;;4.20;1.20;;;;;;;19.74;37.42;100923.63;16112169;19;129036;-50
2023/01/01 03:30:47;;;;;;;2.83;0.90;;;;;;;19.73;37.16;100927.50;16114817;19;129556;-48
2023/01/01 03:36:18;;;;;;;5.23;1.00;;;;;;;19.71;37.23;100946.34;16115576;19;130865;-52
2023/01/01 03:41:49;;;;;;;4.70;1.00;;;;;;;19.69;37.52;100944.66;16116722;19;130859;-51
2023/01/01 03:47:11;;;;;;;3.17;1.02;;;;;;;19.67;37.60;100948.78;16114826;19;129732;-47
2023/01/01 03:52:56;;;;;;;3.70;0.80;;;;;;;19.67;37.51;100952.41;16113018;19;129308;-50
2023/01/01 03:58:42;;;;;;;4.03;1.10;;;;;;;19.66;37.53;100945.19;16115049;19;131113;-45
2023/01/01 04:04:05;;;;;;;10.80;1.38;;;;;;;19.63;37.39;100959.56;16113485;19;130097;-50
2023/01/01 04:09:34;;;;;;;4.78;0.98;;;;;;;19.63;37.33;100962.34;16112261;19;130991;-46
2023/01/01 04:14:56;;;;;;;2.17;1.17;;;;;;;19.61;37.46;100975.63;16112583;19;133187;-49
2023/01/01 04:20:18;;;;;;;4.85;0.88;;;;;;;19.61;37.67;100958.13;16111980;19;130591;-47
2023/01/01 04:25:40;;;;;;;3.65;0.95;;;;;;;19.59;37.67;100969.47;16113433;19;129070;-50
2023/01/01 04:31:02;;;;;;;2.60;0.90;;;;;;;19.59;37.41;100977.78;16109340;19;129464;-47
2023/01/01 04:36:23;;;;;;;2.03;1.00;;;;;;;19.58;37.53;100975.28;16111168;19;129507;-46
2023/01/01 04:41:45;;;;;;;2.90;0.77;;;;;;;19.56;37.36;100981.09;16127945;19;130369;-47
2023/01/01 04:47:08;;;;;;;2.05;0.63;;;;;;;19.57;37.75;100991.06;16125761;19;130072;-48
2023/01/01 04:52:29;;;;;;;2.00;0.88;;;;;;;19.56;37.42;101011.63;16129577;19;129091;-52
2023/01/01 04:57:51;;;;;;;4.38;0.88;;;;;;;19.55;37.42;101009.94;16127259;19;129671;-48
2023/01/01 05:03:13;;;;;;;4.65;1.20;;;;;;;19.55;37.69;101004.38;16126137;19;129777;-48
2023/01/01 05:08:38;;;;;;;2.38;0.80;;;;;;;19.55;37.82;101020.19;16125840;19;129048;-49
2023/01/01 05:14:00;;;;;;;3.27;0.97;;;;;;;19.52;37.47;101032.63;16126992;19;130167;-48
2023/01/01 05:19:22;;;;;;;2.03;0.85;;;;;;;19.53;37.63;101034.31;16127455;19;131223;-47
2023/01/01 05:24:44;;;;;;;2.00;0.73;;;;;;;19.51;37.71;101031.78;16123215;19;130774;-48
2023/01/01 05:30:06;;;;;;;4.60;0.65;;;;;;;19.51;37.94;101056.75;16122685;19;129984;-48
2023/01/01 05:35:28;;;;;;;2.08;0.70;;;;;;;19.51;37.53;101064.25;16124521;19;132688;-47
2023/01/01 05:40:50;;;;;;;1.85;0.70;;;;;;;19.50;38.00;101074.50;16123995;19;129514;-47
2023/01/01 05:46:15;;;;;;;3.67;0.80;;;;;;;19.49;37.75;101088.63;16124637;19;129454;-49
2023/01/01 05:51:37;;;;;;;1.27;0.57;;;;;;;19.49;37.63;101080.28;16125030;19;129728;-50
2023/01/01 05:56:57;;;;;;;2.97;0.73;;;;;;;19.47;37.99;101082.47;16123416;19;130531;-50
2023/01/01 06:02:19;;;;;;;1.77;0.50;;;;;;;19.47;37.60;101076.91;16121409;19;129821;-51
2023/01/01 06:07:41;;;;;;;2.70;0.60;;;;;;;19.46;37.81;101094.66;16125295;19;129954;-50
2023/01/01 06:13:09;;;;;;;1.90;0.60;;;;;;;19.44;37.92;101102.41;16119165;19;128995;-52
2023/01/01 06:18:34;;;;;;;2.23;0.70;;;;;;;19.44;37.67;101113.50;16120621;19;130760;-50
2023/01/01 06:23:57;;;;;;;2.30;0.85;;;;;;;19.43;38.05;101134.00;16121262;19;129730;-51
2023/01/01 06:29:19;;;;;;;2.50;0.90;;;;;;;19.42;37.93;101165.63;16120970;19;129729;-48
2023/01/01 06:34:41;;;;;;;1.52;0.70;;;;;;;19.42;38.01;101198.91;16121043;19;129825;-49
2023/01/01 06:40:03;;;;;;;2.45;0.60;;;;;;;19.42;37.95;101210.84;16123237;19;129787;-50
2023/01/01 06:45:25;;;;;;;2.08;0.68;;;;;;;19.56;37.77;101191.13;16117042;19;130255;-50
2023/01/01 06:50:46;;;;;;;1.15;0.55;;;;;;;19.86;37.53;101202.00;16117676;19;131985;-50
2023/01/01 06:56:08;;;;;;;1.42;0.68;;;;;;;20.14;37.40;101208.69;16120873;19;130199;-52
2023/01/01 07:01:32;;;;;;;1.20;0.65;;;;;;;20.36;37.36;101207.94;16113708;19;129057;-47
2023/01/01 07:06:54;;;;;;;3.00;0.60;;;;;;;20.45;37.31;101209.19;16116444;19;129783;-46
2023/01/01 07:12:16;;;;;;;0.88;0.55;;;;;;;20.50;37.23;101220.41;16116546;19;129923;-53
2023/01/01 07:17:37;;;;;;;1.35;0.47;;;;;;;20.52;37.13;101225.72;16118484;19;129530;-50
2023/01/01 07:23:01;;;;;;;1.70;0.40;;;;;;;20.49;36.95;101231.78;16116761;19;130426;-50
2023/01/01 07:28:24;;;;;;;0.65;0.50;;;;;;;20.43;37.35;101247.53;16114911;19;129417;-49
2023/01/01 07:33:46;;;;;;;1.42;0.40;;;;;;;20.38;37.34;101239.09;16115743;19;129478;-48
2023/01/01 07:39:08;;;;;;;1.45;0.50;;;;;;;20.32;37.25;101252.06;16116268;19;130336;-52
2023/01/01 07:44:30;;;;;;;1.38;0.60;;;;;;;20.26;37.23;101259.47;16114064;19;130777;-48
2023/01/01 07:49:52;;;;;;;1.58;0.40;;;;;;;20.21;37.82;101255.75;16116459;19;130097;-52
2023/01/01 07:55:15;;;;;;;0.85;0.43;;;;;;;20.16;37.78;101280.63;16115234;19;129738;-50
2023/01/01 08:00:37;;;;;;;1.95;0.50;;;;;;;20.10;38.04;101294.44;16115598;19;129104;-49
2023/01/01 08:05:59;;;;;;;1.38;0.40;;;;;;;20.06;38.17;101281.31;16110132;19;129210;-50
2023/01/01 08:11:21;;;;;;;1.08;0.20;;;;;;;20.02;37.79;101291.22;16115893;19;131210;-46
2023/01/01 08:16:42;;;;;;;3.67;0.50;;;;;;;19.96;38.11;101293.84;16130949;19;129870;-47
2023/01/01 08:22:04;;;;;;;5.05;1.02;;;;;;;19.93;38.24;101305.47;16128644;19;130614;-49
2023/01/01 08:27:26;;;;;;;5.90;0.95;;;;;;;19.92;38.03;101328.75;16132017;19;129289;-50
2023/01/01 08:32:48;;;;;;;1.77;0.60;;;;;;;19.94;37.68;101328.50;16129409;19;130670;-49
2023/01/01 08:38:11;;;;;;;5.38;1.20;;;;;;;19.91;37.68;101329.00;16130545;19;129998;-50
2023/01/01 08:43:32;;;;;;;6.22;2.00;;;;;;;19.88;37.35;101330.34;16131791;19;130508;-47
2023/01/01 08:48:54;;;;;;;7.97;1.90;;;;;;;19.90;37.18;101344.81;16133099;19;129499;-47
2023/01/01 08:54:16;;;;;;;10.35;1.70;;;;;;;19.93;37.29;101347.13;16128669;19;129806;-49
2023/01/01 08:59:37;;;;;;;10.68;2.13;;;;;;;19.93;37.34;101340.69;16125537;19;130091;-49
2023/01/01 09:04:59;;;;;;;10.32;2.05;;;;;;;19.95;37.07;101347.69;16122113;19;131219;-49
2023/01/01 09:10:21;;;;;;;5.78;1.60;;;;;;;19.95;37.48;101367.13;16124815;19;130866;-49
2023/01/01 09:15:43;;;;;;;10.85;2.33;;;;;;;19.92;37.68;101373.19;16126574;19;129117;-48
2023/01/01 09:21:05;;;;;;;8.68;2.30;;;;;;;19.90;37.52;101385.59;16122625;19;131516;-46
2023/01/01 09:26:27;;;;;;;9.88;2.28;;;;;;;19.87;37.72;101386.94;16122614;19;130373;-45
2023/01/01 09:31:49;;;;;;;13.55;2.42;;;;;;;19.86;37.72;101381.66;16115972;19;129089;-48
2023/01/01 09:37:10;;;;;;;8.50;2.15;;;;;;;19.86;37.99;101389.97;16121022;19;129858;-50
2023/01/01 09:42:42;;;;;;;13.35;2.25;;;;;;;19.84;38.09;101391.06;16120225;19;130143;-51
2023/01/01 09:48:10;;;;;;;8.65;2.00;;;;;;;19.83;38.27;101388.50;16123894;19;130108;-49
2023/01/01 09:54:06;;;;;;;9.82;2.30;;;;;;;19.86;38.01;101401.09;16119972;19;129954;-52
2023/01/01 09:59:29;;;;;;;9.27;2.37;;;;;;;19.83;38.02;101388.50;16119218;19;132161;-47
2023/01/01 10:05:12;;;;;;;6.97;1.70;;;;;;;19.82;38.17;101395.16;16119116;19;130920;-51
2023/01/01 10:10:48;;;;;;;9.45;2.78;;;;;;;19.78;38.46;101400.34;16124342;19;130191;-52
2023/01/01 10:16:22;;;;;;;13.75;1.98;;;;;;;19.74;38.35;101412.19;16124887;19;130332;-52
2023/01/01 10:21:48;;;;;;;6.18;1.50;;;;;;;19.72;38.55;101406.03;16122187;19;129144;-47
2023/01/01 10:27:26;;;;;;;7.72;1.63;;;;;;;19.72;38.60;101417.13;16122855;19;129652;-48
2023/01/01 10:32:50;;;;;;;5.43;1.85;;;;;;;19.74;38.21;101417.75;16117117;19;129248;-50
2023/01/01 10:38:25;;;;;;;7.95;2.00;;;;;;;19.84;38.14;101418.84;16117126;19;130222;-49
2023/01/01 10:43:48;;;;;;;10.93;2.30;;;;;;;19.92;37.71;101398.19;16117192;19;128977;-47
2023/01/01 10:49:14;;;;;;;6.07;2.22;;;;;;;20.03;37.74;101401.22;16117890;19;129657;-47
2023/01/01 10:54:39;;;;;;;8.23;1.45;;;;;;;20.12;37.85;101416.41;16120325;19;136008;-49
2023/01/01 11:00:22;;;;;;;8.05;1.80;;;;;;;20.17;37.25;101424.84;16117440;19;130695;-49
2023/01/01 11:06:09;;;;;;;7.55;1.60;;;;;;;20.21;37.55;101444.66;16111395;19;129230;-49
2023/01/01 11:11:45;;;;;;;7.35;1.48;;;;;;;20.17;37.26;101449.88;16114185;19;129312;-46
2023/01/01 11:17:08;;;;;;;11.30;1.85;;;;;;;20.09;37.57;101441.88;16116552;19;130701;-49
2023/01/01 11:22:38;;;;;;;9.35;1.85;;;;;;;20.10;37.39;101438.03;16116227;19;129562;-49
2023/01/01 11:28:30;;;;;;;13.57;2.13;;;;;;;20.07;37.42;101427.38;16116013;19;129428;-47
2023/01/01 11:33:55;;;;;;;15.60;1.67;;;;;;;20.07;37.65;101410.72;16115335;19;129379;-49
2023/01/01 11:39:25;;;;;;;9.93;2.00;;;;;;;20.08;37.65;101412.41;16113494;19;130110;-51
2023/01/01 11:44:52;;;;;;;16.33;1.63;;;;;;;20.09;37.29;101417.75;16120187;19;131870;-53
2023/01/01 11:50:46;;;;;;;12.77;2.28;;;;;;;20.12;37.40;101427.50;16126889;19;130731;-47
2023/01/01 11:56:20;;;;;;;16.00;2.22;;;;;;;20.18;37.34;101429.34;16118939;19;129681;-48
2023/01/01 12:02:01;;;;;;;7.72;2.22;;;;;;;20.20;37.55;101418.78;16120698;19;135172;-47
2023/01/01 12:07:30;;;;;;;5.35;1.52;;;;;;;20.20;37.64;101412.41;16118528;19;129833;-47
2023/01/01 12:13:10;;;;;;;8.30;1.92;;;;;;;20.17;37.46;101419.31;16118069;19;130470;-46
2023/01/01 12:18:46;;;;;;;9.85;2.00;;;;;;;20.16;37.59;101419.53;16121516;19;131977;-48
2023/01/01 12:24:11;;;;;;;5.47;1.90;;;;;;;20.11;38.00;101417.50;16120516;19;130558;-50
2023/01/01 12:30:00;;;;;;;11.32;3.10;;;;;;;20.12;38.12;101402.50;16123066;19;129524;-48
2023/01/01 12:35:51;;;;;;;13.55;2.65;;;;;;;20.18;38.33;101384.03;16130225;19;132574;-50
2023/01/01 12:41:38;;;;;;;6.18;2.00;;;;;;;20.19;38.45;101378.22;16124361;19;129805;-50
2023/01/01 12:47:21;;;;;;;9.18;2.33;;;;;;;20.21;38.10;101387.16;16125992;19;131563;-50
2023/01/01 12:53:06;;;;;;;6.07;1.83;;;;;;;20.20;38.18;101377.13;16126607;19;129649;-51
2023/01/01 12:58:41;;;;;;;6.40;1.65;;;;;;;20.18;38.04;101378.47;16123383;19;129977;-50
2023/01/01 13:04:32;;;;;;;8.00;1.95;;;;;;;20.14;38.35;101394.78;16120774;19;129608;-48
2023/01/01 13:09:55;;;;;;;8.82;1.75;;;;;;;20.09;38.01;101372.44;16119119;19;130937;-53
2023/01/01 13:15:36;;;;;;;13.95;2.08;;;;;;;20.05;37.75;101365.72;16115683;19;130953;-52
2023/01/01 13:21:05;;;;;;;6.93;1.90;;;;;;;19.97;38.14;101362.19;16106666;19;130425;-50
2023/01/01 13:26:27;;;;;;;12.10;1.92;;;;;;;19.96;37.77;101360.47;16116734;19;129271;-46
2023/01/01 13:31:48;;;;;;;10.82;2.00;;;;;;;19.96;38.06;101354.09;16122080;19;129401;-51
2023/01/01 13:37:12;;;;;;;8.18;1.65;;;;;;;19.96;37.73;101360.47;16125660;19;129768;-50
2023/01/01 13:42:53;;;;;;;11.32;1.67;;;;;;;19.95;37.77;101361.56;16125796;19;129715;-49
2023/01/01 13:49:06;;;;;;;5.50;1.40;;;;;;;19.92;38.15;101378.75;16124548;19;128967;-52
2023/01/01 13:54:34;;;;;;;9.83;1.60;;;;;;;19.90;38.03;101367.03;16121363;19;129046;-50
2023/01/01 14:00:17;;;;;;;6.97;1.70;;;;;;;19.89;37.88;101386.69;16124368;19;129618;-53
2023/01/01 14:05:57;;;;;;;14.30;1.50;;;;;;;19.84;37.99;101377.19;16123859;19;129461;-51
2023/01/01 14:11:23;;;;;;;4.32;1.40;;;;;;;19.83;38.06;101383.81;16122881;19;131187;-50
2023/01/01 14:16:45;;;;;;;4.65;1.58;;;;;;;19.81;38.15;101397.09;16123156;19;131162;-47
2023/01/01 14:22:09;;;;;;;6.68;1.40;;;;;;;19.80;38.34;101378.75;16122150;19;129030;-47
2023/01/01 14:27:31;;;;;;;4.68;1.35;;;;;;;19.79;38.15;101359.56;16120540;19;130240;-48
2023/01/01 14:33:01;;;;;;;4.70;1.20;;;;;;;19.78;38.17;101375.38;16120310;19;129383;-49
2023/01/01 14:38:34;;;;;;;10.38;1.20;;;;;;;19.80;38.23;101369.59;16121008;19;129024;-47
2023/01/01 14:44:02;;;;;;;7.97;1.45;;;;;;;19.78;38.24;101368.97;16121873;19;129972;-51
2023/01/01 14:49:37;;;;;;;6.65;1.08;;;;;;;19.77;38.32;101378.41;16119291;19;129129;-53
2023/01/01 14:55:00;;;;;;;2.90;0.87;;;;;;;19.76;38.72;101393.38;16123213;19;130312;-48
2023/01/01 15:00:26;;;;;;;4.72;1.30;;;;;;;19.77;38.68;101386.72;16116847;19;129990;-52
2023/01/01 15:05:59;;;;;;;3.22;1.13;;;;;;;19.76;38.78;101374.75;16118728;19;129461;-49
2023/01/01 15:11:21;;;;;;;3.72;0.88;;;;;;;19.75;38.80;101361.13;16119178;19;131634;-50
2023/01/01 15:17:02;;;;;;;1.95;0.85;;;;;;;19.75;38.62;101359.22;16117909;19;129557;-50
2023/01/01 15:22:25;;;;;;;2.97;0.90;;;;;;;19.74;38.30;101362.22;16116999;19;129655;-51
2023/01/01 15:27:53;;;;;;;2.80;0.90;;;;;;;19.74;38.66;101362.22;16117650;19;129645;-52
2023/01/01 15:33:15;;;;;;;1.67;0.75;;;;;;;19.73;38.90;101357.75;16118235;19;130292;-50
2023/01/01 15:38:40;;;;;;;3.30;0.90;;;;;;;19.73;38.85;101368.84;16120785;19;129827;-52
2023/01/01 15:44:18;;;;;;;1.97;0.70;;;;;;;19.74;38.63;101367.78;16117817;19;130886;-49
2023/01/01 15:49:40;;;;;;;2.42;0.82;;;;;;;19.71;38.86;101368.25;16120455;19;130373;-50
2023/01/01 15:55:02;;;;;;;1.95;0.73;;;;;;;19.71;38.91;101358.00;16117046;19;131716;-51
2023/01/01 16:00:28;;;;;;;2.78;0.70;;;;;;;19.72;38.52;101364.38;16115135;19;131208;-48
2023/01/01 16:05:50;;;;;;;;;;;;;;;19.66;38.57;101347.63;16115312;19;129987;-51
2023/01/01 16:11:13;;;;;;;3.55;0.90;;;;;;;19.68;39.05;101351.03;16117223;19;129879;-54
2023/01/01 16:16:38;;;;;;;2.38;0.68;;;;;;;19.68;38.51;101347.38;16116153;19;129625;-52
2023/01/01 16:21:59;;;;;;;1.97;0.70;;;;;;;19.66;38.77;101349.56;16116354;19;131431;-51
2023/01/01 16:27:21;;;;;;;1.15;0.55;;;;;;;19.67;38.83;101341.00;16117525;19;129698;-51
2023/01/01 16:32:44;;;;;;;2.80;0.90;;;;;;;19.66;38.89;101339.31;16118156;19;128907;-46
2023/01/01 16:38:06;;;;;;;2.70;0.88;;;;;;;19.66;38.88;101330.97;16130066;19;130434;-48
2023/01/01 16:43:27;;;;;;;1.05;0.50;;;;;;;19.65;38.84;101318.19;16129213;19;131272;-49
2023/01/01 16:48:49;;;;;;;2.75;0.70;;;;;;;19.65;38.92;101325.66;16125271;19;129446;-51
2023/01/01 16:54:11;;;;;;;1.77;0.60;;;;;;;19.63;39.16;101312.03;16127538;19;130532;-51
2023/01/01 16:59:33;;;;;;;1.48;0.63;;;;;;;19.64;39.15;101316.50;16128136;19;128827;-53
2023/01/01 17:04:54;;;;;;;1.65;0.63;;;;;;;19.62;38.89;101309.50;16126634;19;129541;-50
2023/01/01 17:10:16;;;;;;;1.40;0.60;;;;;;;19.61;38.81;101305.88;16125004;19;129936;-52
2023/01/01 17:15:38;;;;;;;3.33;0.70;;;;;;;19.62;38.79;101309.50;16127910;19;130101;-47
2023/01/01 17:21:05;;;;;;;1.95;0.70;;;;;;;19.61;39.02;101316.97;16125634;19;129692;-51
2023/01/01 17:26:26;;;;;;;1.48;0.50;;;;;;;19.59;39.20;101313.59;16128349;19;129729;-48
2023/01/01 17:31:49;;;;;;;1.15;0.55;;;;;;;19.59;38.98;101305.28;16123270;19;130583;-50
2023/01/01 17:37:10;;;;;;;0.77;0.50;;;;;;;19.58;38.86;101289.72;16126631;19;131135;-49
2023/01/01 17:42:33;;;;;;;1.08;0.65;;;;;;;19.58;39.06;101286.94;16124326;19;130257;-49
2023/01/01 17:47:55;;;;;;;1.05;0.50;;;;;;;19.56;38.79;101283.59;16125119;19;129893;-50
2023/01/01 17:53:17;;;;;;;1.35;0.60;;;;;;;19.55;39.00;101279.13;16124488;19;128945;-50
2023/01/01 17:58:40;;;;;;;1.70;0.65;;;;;;;19.55;39.04;101262.47;16125799;19;129612;-48
2023/01/01 18:04:05;;;;;;;1.00;0.40;;;;;;;19.55;38.85;101265.25;16123852;19;131464;-51
2023/01/01 18:09:26;;;;;;;1.10;0.47;;;;;;;19.52;38.87;101238.81;16122702;19;129445;-50
2023/01/01 18:14:48;;;;;;;1.58;0.50;;;;;;;19.53;38.86;101234.94;16118696;19;129849;-48
2023/01/01 18:20:10;;;;;;;1.33;0.60;;;;;;;19.52;39.09;101215.78;16118779;19;129323;-53
2023/01/01 18:25:32;;;;;;;1.17;0.50;;;;;;;19.52;38.93;101218.53;16122179;19;129960;-52
2023/01/01 18:30:54;;;;;;;1.23;0.52;;;;;;;19.52;39.11;101215.78;16121044;19;128986;-50
2023/01/01 18:36:19;;;;;;;1.00;0.50;;;;;;;19.50;38.88;101199.38;16120272;19;129605;-48
2023/01/01 18:41:47;;;;;;;1.00;0.53;;;;;;;19.51;38.92;101195.50;16123465;19;129893;-49
2023/01/01 18:47:16;;;;;;;0.90;0.45;;;;;;;19.50;39.42;101184.66;16117750;19;130195;-50
2023/01/01 18:52:38;;;;;;;1.90;0.60;;;;;;;19.49;39.02;101182.97;16120213;19;130412;-48
2023/01/01 18:58:13;;;;;;;0.50;0.40;;;;;;;19.49;39.39;101177.41;16119216;19;129863;-48
2023/01/01 19:03:39;;;;;;;1.83;0.57;;;;;;;19.49;38.96;101166.31;16117430;19;129631;-49
2023/01/01 19:09:22;;;;;;;0.68;0.45;;;;;;;19.50;39.21;101154.13;16122484;19;133505;-52
2023/01/01 19:14:43;;;;;;;1.02;0.50;;;;;;;19.47;39.01;101151.84;16125672;19;129518;-55
2023/01/01 19:20:14;;;;;;;0.65;0.32;;;;;;;19.48;39.11;101142.41;16126529;19;129588;-52
2023/01/01 19:25:38;;;;;;;1.00;0.50;;;;;;;19.47;39.01;101124.94;16123909;19;129522;-49
2023/01/01 19:31:01;;;;;;;1.58;0.50;;;;;;;19.47;38.96;101118.53;16117245;19;130539;-49
2023/01/01 19:36:23;;;;;;;1.20;0.57;;;;;;;19.46;39.40;101108.53;16108502;19;130306;-52
2023/01/01 19:41:46;;;;;;;1.67;0.40;;;;;;;19.44;39.50;101092.13;16112598;19;130281;-53
2023/01/01 19:47:09;;;;;;;5.25;0.50;;;;;;;19.47;39.30;101085.25;16112721;19;129809;-55
2023/01/01 19:52:31;;;;;;;3.40;0.60;;;;;;;19.47;39.08;101057.50;16112935;19;129204;-50
2023/01/01 19:57:52;;;;;;;1.40;0.55;;;;;;;19.47;39.29;101063.03;16120400;19;130518;-47
2023/01/01 20:03:15;;;;;;;5.38;0.63;;;;;;;19.47;39.38;101068.59;16119802;19;129857;-48
2023/01/01 20:08:56;;;;;;;3.65;0.77;;;;;;;19.50;39.51;101068.09;16136732;19;131726;-50
2023/01/01 20:14:18;;;;;;;2.15;0.73;;;;;;;19.50;39.72;101057.88;16137897;19;130246;-52
2023/01/01 20:19:41;;;;;;;3.78;0.55;;;;;;;19.53;39.92;101067.63;16130613;19;130012;-53
2023/01/01 20:25:03;;;;;;;3.90;0.45;;;;;;;19.53;39.86;101078.72;16135919;19;129950;-48
2023/01/01 20:30:25;;;;;;;5.00;0.82;;;;;;;19.57;40.16;101060.44;16135552;19;129762;-51
2023/01/01 20:41:27;;;;;;;9.48;0.73;;;;;;;20.15;39.82;101057.59;16136657;19;129280;-51
2023/01/01 20:46:49;;;;;;;7.75;0.77;;;;;;;20.55;39.25;101042.63;16134820;19;130854;-47
2023/01/01 20:52:10;;;;;;;8.82;0.70;;;;;;;20.90;38.56;101035.88;16134128;19;130015;-48
2023/01/01 20:57:33;;;;;;;10.02;0.93;;;;;;;21.13;38.71;101028.34;16133224;19;131872;-48
2023/01/01 21:02:54;;;;;;;7.82;0.95;;;;;;;21.22;38.42;101029.56;16134410;19;129892;-48
2023/01/01 21:08:16;;;;;;;3.92;0.60;;;;;;;21.21;38.21;101018.72;16133488;19;129854;-50
2023/01/01 21:13:38;;;;;;;11.80;0.98;;;;;;;21.15;38.60;101016.94;16137460;19;129282;-48
2023/01/01 21:19:01;;;;;;;2.92;0.73;;;;;;;21.07;38.51;101007.13;16131820;19;129886;-48
2023/01/01 21:24:31;;;;;;;14.98;1.05;;;;;;;20.99;38.92;101011.22;16128829;19;129666;-51
2023/01/01 21:29:55;;;;;;;8.20;1.00;;;;;;;20.86;38.63;100995.78;16131295;19;129601;-58
2023/01/01 21:35:31;;;;;;;14.77;1.55;;;;;;;20.75;38.85;100994.81;16130764;19;130714;-50
2023/01/01 21:40:57;;;;;;;19.15;1.42;;;;;;;20.66;39.61;100992.72;16125557;19;130292;-47
2023/01/01 21:46:38;;;;;;;8.00;1.13;;;;;;;20.62;39.79;100984.03;16126076;19;130541;-52
2023/01/01 21:52:00;;;;;;;7.53;1.30;;;;;;;20.54;39.97;100993.69;16130681;19;129826;-65
2023/01/01 21:57:23;;;;;;;11.15;1.33;;;;;;;20.50;39.85;100986.97;16126492;19;134769;-45
2023/01/01 22:02:46;;;;;;;8.27;1.50;;;;;;;20.41;39.97;100980.19;16123707;19;129387;-53
2023/01/01 22:08:23;;;;;;;10.15;1.55;;;;;;;20.33;39.99;100984.25;16125618;19;130090;-50
2023/01/01 22:13:45;;;;;;;9.70;1.20;;;;;;;20.20;40.53;100985.44;16129146;19;131135;-52
2023/01/01 22:19:16;;;;;;;4.97;1.10;;;;;;;20.15;40.45;100982.59;16126143;19;130895;-46
2023/01/01 22:24:37;;;;;;;4.28;0.93;;;;;;;20.08;40.54;100987.47;16128322;19;130387;-52
2023/01/01 22:30:17;;;;;;;7.32;1.20;;;;;;;20.04;40.65;100978.00;16128235;19;129581;-52
2023/01/01 22:35:39;;;;;;;7.05;0.90;;;;;;;19.95;40.45;100970.03;16129072;19;129869;-48
2023/01/01 22:41:01;;;;;;;4.10;0.80;;;;;;;19.92;40.63;100966.94;16126205;19;129244;-46
2023/01/01 22:46:31;;;;;;;7.22;1.25;;;;;;;19.88;40.44;100968.56;16125314;19;130006;-47
2023/01/01 22:51:53;;;;;;;5.45;0.60;;;;;;;19.85;40.32;100958.78;16127251;19;130105;-49
2023/01/01 22:57:15;;;;;;;7.28;0.88;;;;;;;19.79;40.40;100949.53;16124320;19;129419;-47
2023/01/01 23:02:37;;;;;;;3.45;0.65;;;;;;;19.77;40.31;100946.16;16128368;19;130044;-50
2023/01/01 23:07:58;;;;;;;4.60;0.63;;;;;;;19.75;40.72;100934.50;16122549;19;129745;-53
2023/01/01 23:19:01;;;;;;;3.28;0.70;;;;;;;19.67;40.40;100935.78;16119740;19;129687;-47
2023/01/01 23:24:23;;;;;;;2.30;0.80;;;;;;;19.66;40.48;100936.84;16119772;19;129772;-50
2023/01/01 23:29:48;;;;;;;3.97;0.85;;;;;;;19.63;40.37;100923.47;16123654;19;130811;-52
2023/01/01 23:35:10;;;;;;;4.27;0.80;;;;;;;19.61;40.34;100925.66;16124320;19;129856;-51
2023/01/01 23:40:31;;;;;;;4.25;0.65;;;;;;;19.60;40.59;100917.59;16121495;19;129380;-50
2023/01/01 23:45:53;;;;;;;3.55;0.80;;;;;;;19.57;40.72;100916.16;16118545;19;130805;-50
2023/01/01 23:51:16;;;;;;;1.95;0.70;;;;;;;19.55;40.55;100912.81;16122179;19;130293;-55
2023/01/01 23:56:37;;;;;;;4.95;0.70;;;;;;;19.53;40.71;100912.22;16127370;19;131269;-52
